sensor_id;sensor_type;location;lat;lon;timestamp;temperature;humidity
30150;DHT22;16962;48.646;9.026;2023-06-22T00:00:12;19.00;53.20
30150;DHT22;16962;48.646;9.026;2023-06-22T00:03:02;19.00;99.90
30150;DHT22;16962;48.646;9.026;2023-06-22T00:05:53;18.90;99.90
30150;DHT22;16962;48.646;9.026;2023-06-22T00:08:40;18.90;99.90
30150;DHT22;16962;48.646;9.026;2023-06-22T00:11:28;18.90;99.90
30150;DHT22;16962;48.646;9.026;2023-06-22T00:14:23;18.90;99.90
30150;DHT22;16962;48.646;9.026;2023-06-22T00:17:12;18.80;99.90
30150;DHT22;16962;48.646;9.026;2023-06-22T00:19:59;18.80;99.90
30150;DHT22;16962;48.646;9.026;2023-06-22T00:22:49;18.80;1.00
30150;DHT22;16962;48.646;9.026;2023-06-22T00:25:41;18.80;99.90
30150;DHT22;16962;48.646;9.026;2023-06-22T00:28:29;18.70;1.00
30150;DHT22;16962;48.646;9.026;2023-06-22T00:31:24;18.60;1.00
30150;DHT22;16962;48.646;9.026;2023-06-22T00:34:11;18.60;1.00
30150;DHT22;16962;48.646;9.026;2023-06-22T00:37:02;18.50;14.90
30150;DHT22;16962;48.646;9.026;2023-06-22T00:39:55;18.60;99.90
30150;DHT22;16962;48.646;9.026;2023-06-22T00:42:44;18.60;99.90
30150;DHT22;16962;48.646;9.026;2023-06-22T00:45:31;18.60;99.90
30150;DHT22;16962;48.646;9.026;2023-06-22T00:48:19;18.60;99.90
30150;DHT22;16962;48.646;9.026;2023-06-22T00:51:09;18.50;99.90
30150;DHT22;16962;48.646;9.026;2023-06-22T00:54:03;18.40;99.90
30150;DHT22;16962;48.646;9.026;2023-06-22T00:56:53;18.40;99.90
30150;DHT22;16962;48.646;9.026;2023-06-22T00:59:48;18.30;99.90
30150;DHT22;16962;48.646;9.026;2023-06-22T01:02:37;18.30;99.90
30150;DHT22;16962;48.646;9.026;2023-06-22T01:05:30;18.20;99.90
30150;DHT22;16962;48.646;9.026;2023-06-22T01:11:25;18.20;99.90
30150;DHT22;16962;48.646;9.026;2023-06-22T01:14:15;18.20;99.90
30150;DHT22;16962;48.646;9.026;2023-06-22T01:17:09;18.20;99.90
30150;DHT22;16962;48.646;9.026;2023-06-22T01:20:00;18.10;99.90
30150;DHT22;16962;48.646;9.026;2023-06-22T01:28:51;18.20;99.90
30150;DHT22;16962;48.646;9.026;2023-06-22T01:31:43;18.30;99.90
30150;DHT22;16962;48.646;9.026;2023-06-22T01:34:34;18.30;99.90
30150;DHT22;16962;48.646;9.026;2023-06-22T01:37:24;18.30;99.90
30150;DHT22;16962;48.646;9.026;2023-06-22T01:40:12;18.20;99.90
30150;DHT22;16962;48.646;9.026;2023-06-22T01:43:03;18.20;99.90
30150;DHT22;16962;48.646;9.026;2023-06-22T01:45:59;18.30;99.90
30150;DHT22;16962;48.646;9.026;2023-06-22T01:48:47;18.30;99.90
30150;DHT22;16962;48.646;9.026;2023-06-22T01:51:38;18.30;99.90
30150;DHT22;16962;48.646;9.026;2023-06-22T01:54:25;18.20;99.90
30150;DHT22;16962;48.646;9.026;2023-06-22T01:57:13;18.20;99.90
30150;DHT22;16962;48.646;9.026;2023-06-22T02:00:04;18.30;99.90
30150;DHT22;16962;48.646;9.026;2023-06-22T02:03:07;18.20;99.90
30150;DHT22;16962;48.646;9.026;2023-06-22T02:06:01;18.20;99.90
30150;DHT22;16962;48.646;9.026;2023-06-22T02:08:57;18.00;99.90
30150;DHT22;16962;48.646;9.026;2023-06-22T02:11:46;18.00;99.90
30150;DHT22;16962;48.646;9.026;2023-06-22T02:14:35;18.10;99.90
30150;DHT22;16962;48.646;9.026;2023-06-22T02:17:26;18.10;99.90
30150;DHT22;16962;48.646;9.026;2023-06-22T02:20:16;18.00;99.90
30150;DHT22;16962;48.646;9.026;2023-06-22T02:23:05;18.00;99.90
30150;DHT22;16962;48.646;9.026;2023-06-22T02:25:55;18.00;99.90
30150;DHT22;16962;48.646;9.026;2023-06-22T02:28:42;17.90;99.90
30150;DHT22;16962;48.646;9.026;2023-06-22T02:31:29;17.90;99.90
30150;DHT22;16962;48.646;9.026;2023-06-22T02:34:18;18.00;99.90
30150;DHT22;16962;48.646;9.026;2023-06-22T02:37:05;18.00;99.90
30150;DHT22;16962;48.646;9.026;2023-06-22T02:39:53;18.20;99.90
30150;DHT22;16962;48.646;9.026;2023-06-22T02:42:40;18.30;99.90
30150;DHT22;16962;48.646;9.026;2023-06-22T02:45:27;18.20;99.90
30150;DHT22;16962;48.646;9.026;2023-06-22T02:48:15;18.10;99.90
30150;DHT22;16962;48.646;9.026;2023-06-22T02:51:02;18.00;99.90
30150;DHT22;16962;48.646;9.026;2023-06-22T02:53:49;18.00;99.90
30150;DHT22;16962;48.646;9.026;2023-06-22T02:56:39;18.00;99.90
30150;DHT22;16962;48.646;9.026;2023-06-22T02:59:28;18.00;99.90
30150;DHT22;16962;48.646;9.026;2023-06-22T03:02:15;18.00;99.90
30150;DHT22;16962;48.646;9.026;2023-06-22T03:05:02;18.00;99.90
30150;DHT22;16962;48.646;9.026;2023-06-22T03:07:51;18.00;99.90
30150;DHT22;16962;48.646;9.026;2023-06-22T03:10:38;18.00;99.90
30150;DHT22;16962;48.646;9.026;2023-06-22T03:13:30;17.90;99.90
30150;DHT22;16962;48.646;9.026;2023-06-22T03:16:17;17.90;99.90
30150;DHT22;16962;48.646;9.026;2023-06-22T03:19:05;17.80;99.90
30150;DHT22;16962;48.646;9.026;2023-06-22T03:21:52;17.70;99.90
30150;DHT22;16962;48.646;9.026;2023-06-22T03:24:39;17.70;99.90
30150;DHT22;16962;48.646;9.026;2023-06-22T03:27:27;17.60;99.90
30150;DHT22;16962;48.646;9.026;2023-06-22T03:30:14;17.60;99.90
30150;DHT22;16962;48.646;9.026;2023-06-22T03:33:02;17.50;99.90
30150;DHT22;16962;48.646;9.026;2023-06-22T03:35:49;17.50;99.90
30150;DHT22;16962;48.646;9.026;2023-06-22T03:38:37;17.50;99.90
30150;DHT22;16962;48.646;9.026;2023-06-22T03:41:28;17.40;99.90
30150;DHT22;16962;48.646;9.026;2023-06-22T03:44:15;17.40;99.90
30150;DHT22;16962;48.646;9.026;2023-06-22T03:47:05;17.30;99.90
30150;DHT22;16962;48.646;9.026;2023-06-22T03:49:56;17.30;99.90
30150;DHT22;16962;48.646;9.026;2023-06-22T03:52:44;17.30;99.90
30150;DHT22;16962;48.646;9.026;2023-06-22T03:55:33;17.20;99.90
30150;DHT22;16962;48.646;9.026;2023-06-22T03:58:21;17.30;99.90
30150;DHT22;16962;48.646;9.026;2023-06-22T04:01:35;17.30;99.90
30150;DHT22;16962;48.646;9.026;2023-06-22T04:04:42;17.30;99.90
30150;DHT22;16962;48.646;9.026;2023-06-22T04:07:29;17.40;99.90
30150;DHT22;16962;48.646;9.026;2023-06-22T04:10:19;17.50;99.90
30150;DHT22;16962;48.646;9.026;2023-06-22T04:13:09;17.60;99.90
30150;DHT22;16962;48.646;9.026;2023-06-22T04:15:56;17.70;99.90
30150;DHT22;16962;48.646;9.026;2023-06-22T04:18:43;17.70;99.90
30150;DHT22;16962;48.646;9.026;2023-06-22T04:21:31;17.80;99.90
30150;DHT22;16962;48.646;9.026;2023-06-22T04:24:18;17.80;99.90
30150;DHT22;16962;48.646;9.026;2023-06-22T04:31:16;18.00;99.90
30150;DHT22;16962;48.646;9.026;2023-06-22T04:34:07;18.00;99.90
30150;DHT22;16962;48.646;9.026;2023-06-22T04:36:55;18.10;99.90
30150;DHT22;16962;48.646;9.026;2023-06-22T04:39:43;18.10;99.90
30150;DHT22;16962;48.646;9.026;2023-06-22T04:42:30;18.20;99.90
30150;DHT22;16962;48.646;9.026;2023-06-22T04:45:19;18.30;99.90
30150;DHT22;16962;48.646;9.026;2023-06-22T04:48:07;18.30;99.90
30150;DHT22;16962;48.646;9.026;2023-06-22T04:51:03;18.40;99.90
30150;DHT22;16962;48.646;9.026;2023-06-22T04:53:51;18.40;99.90
30150;DHT22;16962;48.646;9.026;2023-06-22T04:59:24;18.60;99.90
30150;DHT22;16962;48.646;9.026;2023-06-22T05:02:16;18.70;99.90
30150;DHT22;16962;48.646;9.026;2023-06-22T05:05:04;18.80;99.90
30150;DHT22;16962;48.646;9.026;2023-06-22T05:07:57;18.90;99.90
30150;DHT22;16962;48.646;9.026;2023-06-22T05:10:51;19.00;99.40
30150;DHT22;16962;48.646;9.026;2023-06-22T05:13:52;19.10;1.00
30150;DHT22;16962;48.646;9.026;2023-06-22T05:16:41;19.20;99.90
30150;DHT22;16962;48.646;9.026;2023-06-22T05:19:41;19.30;93.30
30150;DHT22;16962;48.646;9.026;2023-06-22T05:22:36;19.50;1.00
30150;DHT22;16962;48.646;9.026;2023-06-22T05:25:26;19.60;99.90
30150;DHT22;16962;48.646;9.026;2023-06-22T05:28:14;19.80;1.00
30150;DHT22;16962;48.646;9.026;2023-06-22T05:31:01;19.80;99.90
30150;DHT22;16962;48.646;9.026;2023-06-22T05:33:51;20.00;1.00
30150;DHT22;16962;48.646;9.026;2023-06-22T05:36:41;20.10;99.90
30150;DHT22;16962;48.646;9.026;2023-06-22T05:39:33;20.10;70.50
30150;DHT22;16962;48.646;9.026;2023-06-22T05:42:21;20.30;1.00
30150;DHT22;16962;48.646;9.026;2023-06-22T05:45:08;20.40;99.90
30150;DHT22;16962;48.646;9.026;2023-06-22T05:47:59;20.40;99.90
30150;DHT22;16962;48.646;9.026;2023-06-22T05:50:46;20.50;99.90
30150;DHT22;16962;48.646;9.026;2023-06-22T05:53:38;20.50;1.00
30150;DHT22;16962;48.646;9.026;2023-06-22T05:56:28;20.50;1.00
30150;DHT22;16962;48.646;9.026;2023-06-22T05:59:15;20.50;1.00
30150;DHT22;16962;48.646;9.026;2023-06-22T06:02:03;20.40;1.00
30150;DHT22;16962;48.646;9.026;2023-06-22T06:04:50;20.40;1.00
30150;DHT22;16962;48.646;9.026;2023-06-22T06:07:42;20.50;99.90
30150;DHT22;16962;48.646;9.026;2023-06-22T06:10:31;20.50;1.00
30150;DHT22;16962;48.646;9.026;2023-06-22T06:13:25;20.60;99.90
30150;DHT22;16962;48.646;9.026;2023-06-22T06:16:20;20.80;99.90
30150;DHT22;16962;48.646;9.026;2023-06-22T06:19:12;20.80;99.90
30150;DHT22;16962;48.646;9.026;2023-06-22T06:22:11;20.90;99.90
30150;DHT22;16962;48.646;9.026;2023-06-22T06:24:59;21.00;57.80
30150;DHT22;16962;48.646;9.026;2023-06-22T06:27:51;21.10;1.00
30150;DHT22;16962;48.646;9.026;2023-06-22T06:30:43;21.20;1.00
30150;DHT22;16962;48.646;9.026;2023-06-22T06:33:31;21.40;1.00
30150;DHT22;16962;48.646;9.026;2023-06-22T06:36:22;21.50;1.00
30150;DHT22;16962;48.646;9.026;2023-06-22T06:39:09;21.70;99.90
30150;DHT22;16962;48.646;9.026;2023-06-22T06:42:19;21.80;99.90
30150;DHT22;16962;48.646;9.026;2023-06-22T06:45:15;22.10;99.90
30150;DHT22;16962;48.646;9.026;2023-06-22T06:48:07;22.30;99.90
30150;DHT22;16962;48.646;9.026;2023-06-22T06:50:54;22.40;99.90
30150;DHT22;16962;48.646;9.026;2023-06-22T06:53:41;22.50;99.90
30150;DHT22;16962;48.646;9.026;2023-06-22T06:56:29;22.60;99.90
30150;DHT22;16962;48.646;9.026;2023-06-22T06:59:19;22.90;99.90
30150;DHT22;16962;48.646;9.026;2023-06-22T07:02:24;23.10;41.80
30150;DHT22;16962;48.646;9.026;2023-06-22T07:05:14;23.50;1.00
30150;DHT22;16962;48.646;9.026;2023-06-22T07:08:04;23.80;1.00
30150;DHT22;16962;48.646;9.026;2023-06-22T07:10:55;24.20;1.00
30150;DHT22;16962;48.646;9.026;2023-06-22T07:13:42;24.30;1.00
30150;DHT22;16962;48.646;9.026;2023-06-22T07:16:40;24.50;1.00
30150;DHT22;16962;48.646;9.026;2023-06-22T07:19:32;24.90;1.00
30150;DHT22;16962;48.646;9.026;2023-06-22T07:22:19;25.10;99.90
30150;DHT22;16962;48.646;9.026;2023-06-22T07:25:10;25.50;99.90
30150;DHT22;16962;48.646;9.026;2023-06-22T07:28:29;25.70;99.90
30150;DHT22;16962;48.646;9.026;2023-06-22T07:31:24;25.90;99.90
30150;DHT22;16962;48.646;9.026;2023-06-22T07:34:19;26.30;99.90
30150;DHT22;16962;48.646;9.026;2023-06-22T07:37:09;26.60;99.90
30150;DHT22;16962;48.646;9.026;2023-06-22T07:39:57;26.80;99.90
30150;DHT22;16962;48.646;9.026;2023-06-22T07:42:47;26.90;99.90
30150;DHT22;16962;48.646;9.026;2023-06-22T07:45:38;27.30;99.90
30150;DHT22;16962;48.646;9.026;2023-06-22T07:48:27;27.20;99.90
30150;DHT22;16962;48.646;9.026;2023-06-22T07:51:14;27.30;99.90
30150;DHT22;16962;48.646;9.026;2023-06-22T07:54:02;27.60;99.90
30150;DHT22;16962;48.646;9.026;2023-06-22T07:56:49;27.70;99.90
30150;DHT22;16962;48.646;9.026;2023-06-22T07:59:39;28.20;99.90
30150;DHT22;16962;48.646;9.026;2023-06-22T08:02:27;28.00;99.90
30150;DHT22;16962;48.646;9.026;2023-06-22T08:05:23;28.00;99.90
30150;DHT22;16962;48.646;9.026;2023-06-22T08:08:11;27.60;99.90
30150;DHT22;16962;48.646;9.026;2023-06-22T08:11:01;27.20;99.90
30150;DHT22;16962;48.646;9.026;2023-06-22T08:13:53;27.70;99.90
30150;DHT22;16962;48.646;9.026;2023-06-22T08:16:42;27.80;99.90
30150;DHT22;16962;48.646;9.026;2023-06-22T08:19:31;27.30;99.90
30150;DHT22;16962;48.646;9.026;2023-06-22T08:22:27;27.60;99.90
30150;DHT22;16962;48.646;9.026;2023-06-22T08:25:20;27.40;99.90
30150;DHT22;16962;48.646;9.026;2023-06-22T08:28:10;27.20;99.90
30150;DHT22;16962;48.646;9.026;2023-06-22T08:30:59;27.10;99.90
30150;DHT22;16962;48.646;9.026;2023-06-22T08:33:48;27.00;99.90
30150;DHT22;16962;48.646;9.026;2023-06-22T08:36:39;27.40;99.90
30150;DHT22;16962;48.646;9.026;2023-06-22T08:39:32;27.50;99.90
30150;DHT22;16962;48.646;9.026;2023-06-22T08:42:22;27.20;99.90
30150;DHT22;16962;48.646;9.026;2023-06-22T08:45:13;27.00;99.90
30150;DHT22;16962;48.646;9.026;2023-06-22T08:48:03;27.20;99.90
30150;DHT22;16962;48.646;9.026;2023-06-22T08:50:51;27.30;99.90
30150;DHT22;16962;48.646;9.026;2023-06-22T08:53:38;27.20;99.90
30150;DHT22;16962;48.646;9.026;2023-06-22T08:56:26;26.80;99.90
30150;DHT22;16962;48.646;9.026;2023-06-22T08:59:13;26.70;99.90
30150;DHT22;16962;48.646;9.026;2023-06-22T09:02:00;27.30;99.90
30150;DHT22;16962;48.646;9.026;2023-06-22T09:04:48;27.90;99.90
30150;DHT22;16962;48.646;9.026;2023-06-22T09:07:37;27.80;99.90
30150;DHT22;16962;48.646;9.026;2023-06-22T09:10:27;28.40;99.90
30150;DHT22;16962;48.646;9.026;2023-06-22T09:13:15;28.60;99.90
30150;DHT22;16962;48.646;9.026;2023-06-22T09:16:02;29.00;99.90
30150;DHT22;16962;48.646;9.026;2023-06-22T09:18:52;29.60;99.90
30150;DHT22;16962;48.646;9.026;2023-06-22T09:21:40;29.30;99.90
30150;DHT22;16962;48.646;9.026;2023-06-22T09:24:27;29.40;99.90
30150;DHT22;16962;48.646;9.026;2023-06-22T09:27:15;29.90;99.90
30150;DHT22;16962;48.646;9.026;2023-06-22T09:30:02;30.80;99.90
30150;DHT22;16962;48.646;9.026;2023-06-22T09:32:50;30.90;99.90
30150;DHT22;16962;48.646;9.026;2023-06-22T09:35:41;30.90;99.90
30150;DHT22;16962;48.646;9.026;2023-06-22T09:38:28;30.70;99.90
30150;DHT22;16962;48.646;9.026;2023-06-22T09:41:16;30.50;99.90
30150;DHT22;16962;48.646;9.026;2023-06-22T09:44:03;30.90;99.90
30150;DHT22;16962;48.646;9.026;2023-06-22T09:46:55;31.30;99.90
30150;DHT22;16962;48.646;9.026;2023-06-22T09:49:42;31.80;99.90
30150;DHT22;16962;48.646;9.026;2023-06-22T09:52:34;32.60;99.90
30150;DHT22;16962;48.646;9.026;2023-06-22T09:55:34;33.10;99.90
30150;DHT22;16962;48.646;9.026;2023-06-22T09:58:21;33.70;96.80
30150;DHT22;16962;48.646;9.026;2023-06-22T10:01:09;32.30;99.90
30150;DHT22;16962;48.646;9.026;2023-06-22T10:03:57;31.50;99.90
30150;DHT22;16962;48.646;9.026;2023-06-22T10:06:45;31.10;99.90
30150;DHT22;16962;48.646;9.026;2023-06-22T10:09:33;30.90;99.90
30150;DHT22;16962;48.646;9.026;2023-06-22T10:12:20;31.40;99.90
30150;DHT22;16962;48.646;9.026;2023-06-22T10:15:10;31.60;99.90
30150;DHT22;16962;48.646;9.026;2023-06-22T10:18:04;32.30;99.90
30150;DHT22;16962;48.646;9.026;2023-06-22T10:20:52;32.70;99.90
30150;DHT22;16962;48.646;9.026;2023-06-22T10:23:47;33.40;99.90
30150;DHT22;16962;48.646;9.026;2023-06-22T10:26:36;33.30;99.90
30150;DHT22;16962;48.646;9.026;2023-06-22T10:29:24;33.80;99.90
30150;DHT22;16962;48.646;9.026;2023-06-22T10:32:11;34.40;99.90
30150;DHT22;16962;48.646;9.026;2023-06-22T10:34:58;35.10;99.90
30150;DHT22;16962;48.646;9.026;2023-06-22T10:37:46;35.00;99.90
30150;DHT22;16962;48.646;9.026;2023-06-22T10:40:34;34.70;99.90
30150;DHT22;16962;48.646;9.026;2023-06-22T10:43:21;34.80;99.90
30150;DHT22;16962;48.646;9.026;2023-06-22T10:46:16;34.40;99.90
30150;DHT22;16962;48.646;9.026;2023-06-22T10:49:04;33.80;99.90
30150;DHT22;16962;48.646;9.026;2023-06-22T10:51:51;33.00;99.90
30150;DHT22;16962;48.646;9.026;2023-06-22T10:54:38;32.40;99.90
30150;DHT22;16962;48.646;9.026;2023-06-22T10:57:28;32.00;87.90
30150;DHT22;16962;48.646;9.026;2023-06-22T11:00:16;32.30;99.60
30150;DHT22;16962;48.646;9.026;2023-06-22T11:03:03;32.30;99.90
30150;DHT22;16962;48.646;9.026;2023-06-22T11:05:51;31.90;99.90
30150;DHT22;16962;48.646;9.026;2023-06-22T11:08:38;31.60;99.90
30150;DHT22;16962;48.646;9.026;2023-06-22T11:11:29;31.20;99.90
30150;DHT22;16962;48.646;9.026;2023-06-22T11:14:17;31.10;99.90
30150;DHT22;16962;48.646;9.026;2023-06-22T11:17:05;30.90;99.90
30150;DHT22;16962;48.646;9.026;2023-06-22T11:19:52;30.90;99.90
30150;DHT22;16962;48.646;9.026;2023-06-22T11:22:42;31.00;99.90
30150;DHT22;16962;48.646;9.026;2023-06-22T11:25:29;31.20;99.90
30150;DHT22;16962;48.646;9.026;2023-06-22T11:28:17;31.60;99.90
30150;DHT22;16962;48.646;9.026;2023-06-22T11:31:06;32.60;99.90
30150;DHT22;16962;48.646;9.026;2023-06-22T11:34:11;32.90;99.90
30150;DHT22;16962;48.646;9.026;2023-06-22T11:37:00;33.30;99.90
30150;DHT22;16962;48.646;9.026;2023-06-22T11:39:49;33.60;99.90
30150;DHT22;16962;48.646;9.026;2023-06-22T11:42:54;33.50;99.90
30150;DHT22;16962;48.646;9.026;2023-06-22T11:45:41;33.10;99.90
30150;DHT22;16962;48.646;9.026;2023-06-22T11:48:29;32.30;99.90
30150;DHT22;16962;48.646;9.026;2023-06-22T11:51:27;31.70;99.90
30150;DHT22;16962;48.646;9.026;2023-06-22T11:54:29;31.60;99.90
30150;DHT22;16962;48.646;9.026;2023-06-22T11:57:52;31.60;99.90
30150;DHT22;16962;48.646;9.026;2023-06-22T12:00:59;31.40;99.90
30150;DHT22;16962;48.646;9.026;2023-06-22T12:03:47;30.90;99.90
30150;DHT22;16962;48.646;9.026;2023-06-22T12:06:37;30.20;99.90
30150;DHT22;16962;48.646;9.026;2023-06-22T12:09:28;29.90;99.90
30150;DHT22;16962;48.646;9.026;2023-06-22T12:12:16;30.00;99.90
30150;DHT22;16962;48.646;9.026;2023-06-22T12:15:03;30.20;99.90
30150;DHT22;16962;48.646;9.026;2023-06-22T12:17:51;30.30;99.90
30150;DHT22;16962;48.646;9.026;2023-06-22T12:20:38;30.60;99.90
30150;DHT22;16962;48.646;9.026;2023-06-22T12:23:28;29.70;99.90
30150;DHT22;16962;48.646;9.026;2023-06-22T12:26:20;29.10;99.90
30150;DHT22;16962;48.646;9.026;2023-06-22T12:29:16;28.80;99.90
30150;DHT22;16962;48.646;9.026;2023-06-22T12:32:15;28.70;99.90
30150;DHT22;16962;48.646;9.026;2023-06-22T12:35:11;28.80;99.90
30150;DHT22;16962;48.646;9.026;2023-06-22T12:38:01;28.60;99.90
30150;DHT22;16962;48.646;9.026;2023-06-22T12:40:51;28.60;99.90
30150;DHT22;16962;48.646;9.026;2023-06-22T12:43:40;28.50;99.90
30150;DHT22;16962;48.646;9.026;2023-06-22T12:46:30;28.50;99.90
30150;DHT22;16962;48.646;9.026;2023-06-22T12:49:26;28.30;99.90
30150;DHT22;16962;48.646;9.026;2023-06-22T12:53:01;28.20;99.90
30150;DHT22;16962;48.646;9.026;2023-06-22T12:56:10;28.20;99.90
30150;DHT22;16962;48.646;9.026;2023-06-22T13:03:17;27.90;99.90
30150;DHT22;16962;48.646;9.026;2023-06-22T13:56:27;31.00;99.90
30150;DHT22;16962;48.646;9.026;2023-06-22T14:00:09;31.80;99.90
30150;DHT22;16962;48.646;9.026;2023-06-22T14:04:01;32.90;99.90
30150;DHT22;16962;48.646;9.026;2023-06-22T14:11:31;35.40;90.80
30150;DHT22;16962;48.646;9.026;2023-06-22T14:14:42;34.60;66.90
30150;DHT22;16962;48.646;9.026;2023-06-22T14:17:50;33.10;66.00
30150;DHT22;16962;48.646;9.026;2023-06-22T14:20:37;32.00;58.70
30150;DHT22;16962;48.646;9.026;2023-06-22T14:23:27;31.90;61.70
30150;DHT22;16962;48.646;9.026;2023-06-22T14:26:23;32.00;61.80
30150;DHT22;16962;48.646;9.026;2023-06-22T14:29:12;32.50;68.50
30150;DHT22;16962;48.646;9.026;2023-06-22T14:32:08;33.60;84.80
30150;DHT22;16962;48.646;9.026;2023-06-22T14:35:37;34.50;80.50
30150;DHT22;16962;48.646;9.026;2023-06-22T14:38:41;34.20;57.00
30150;DHT22;16962;48.646;9.026;2023-06-22T14:41:31;33.70;54.50
30150;DHT22;16962;48.646;9.026;2023-06-22T14:44:20;33.70;49.90
30150;DHT22;16962;48.646;9.026;2023-06-22T14:47:07;34.30;73.50
30150;DHT22;16962;48.646;9.026;2023-06-22T14:49:55;33.30;74.00
30150;DHT22;16962;48.646;9.026;2023-06-22T14:52:43;32.50;85.40
30150;DHT22;16962;48.646;9.026;2023-06-22T14:55:30;32.10;78.40
30150;DHT22;16962;48.646;9.026;2023-06-22T14:58:18;31.80;51.70
30150;DHT22;16962;48.646;9.026;2023-06-22T15:01:05;31.50;49.70
30150;DHT22;16962;48.646;9.026;2023-06-22T15:03:57;31.70;60.90
30150;DHT22;16962;48.646;9.026;2023-06-22T15:06:51;31.70;54.70
30150;DHT22;16962;48.646;9.026;2023-06-22T15:10:03;31.50;47.70
30150;DHT22;16962;48.646;9.026;2023-06-22T15:13:01;31.40;56.40
30150;DHT22;16962;48.646;9.026;2023-06-22T15:16:09;32.00;45.90
30150;DHT22;16962;48.646;9.026;2023-06-22T15:18:56;31.60;39.60
30150;DHT22;16962;48.646;9.026;2023-06-22T15:21:45;31.00;47.20
30150;DHT22;16962;48.646;9.026;2023-06-22T15:24:35;30.50;42.30
30150;DHT22;16962;48.646;9.026;2023-06-22T15:27:23;30.50;43.90
30150;DHT22;16962;48.646;9.026;2023-06-22T15:33:47;30.10;43.80
30150;DHT22;16962;48.646;9.026;2023-06-22T15:36:44;29.70;56.10
30150;DHT22;16962;48.646;9.026;2023-06-22T15:39:32;29.60;56.40
30150;DHT22;16962;48.646;9.026;2023-06-22T15:42:20;29.50;54.10
30150;DHT22;16962;48.646;9.026;2023-06-22T15:45:08;29.50;49.00
30150;DHT22;16962;48.646;9.026;2023-06-22T15:47:56;29.20;44.30
30150;DHT22;16962;48.646;9.026;2023-06-22T15:50:46;29.00;40.10
30150;DHT22;16962;48.646;9.026;2023-06-22T15:53:34;28.90;40.50
30150;DHT22;16962;48.646;9.026;2023-06-22T15:56:29;28.70;38.40
30150;DHT22;16962;48.646;9.026;2023-06-22T15:59:21;28.50;37.00
30150;DHT22;16962;48.646;9.026;2023-06-22T16:02:11;28.50;39.80
30150;DHT22;16962;48.646;9.026;2023-06-22T16:04:58;28.40;35.40
30150;DHT22;16962;48.646;9.026;2023-06-22T16:07:48;28.30;34.90
30150;DHT22;16962;48.646;9.026;2023-06-22T16:10:37;28.20;32.70
30150;DHT22;16962;48.646;9.026;2023-06-22T16:13:25;28.20;36.50
30150;DHT22;16962;48.646;9.026;2023-06-22T16:16:13;28.10;37.30
30150;DHT22;16962;48.646;9.026;2023-06-22T16:19:03;27.90;27.70
30150;DHT22;16962;48.646;9.026;2023-06-22T16:21:51;27.70;30.00
30150;DHT22;16962;48.646;9.026;2023-06-22T16:24:38;27.70;35.40
30150;DHT22;16962;48.646;9.026;2023-06-22T16:27:28;27.70;35.10
30150;DHT22;16962;48.646;9.026;2023-06-22T16:30:19;27.70;37.80
30150;DHT22;16962;48.646;9.026;2023-06-22T16:33:06;27.70;43.60
30150;DHT22;16962;48.646;9.026;2023-06-22T16:35:53;27.70;47.70
30150;DHT22;16962;48.646;9.026;2023-06-22T16:38:42;27.70;32.30
30150;DHT22;16962;48.646;9.026;2023-06-22T16:41:34;27.60;34.10
30150;DHT22;16962;48.646;9.026;2023-06-22T16:44:22;27.60;33.70
30150;DHT22;16962;48.646;9.026;2023-06-22T16:47:09;27.70;38.10
30150;DHT22;16962;48.646;9.026;2023-06-22T16:50:00;27.70;44.10
30150;DHT22;16962;48.646;9.026;2023-06-22T16:52:48;27.80;38.30
30150;DHT22;16962;48.646;9.026;2023-06-22T16:55:50;27.70;32.30
30150;DHT22;16962;48.646;9.026;2023-06-22T16:58:40;27.60;33.70
30150;DHT22;16962;48.646;9.026;2023-06-22T17:01:51;27.50;28.80
30150;DHT22;16962;48.646;9.026;2023-06-22T17:04:45;27.30;32.10
30150;DHT22;16962;48.646;9.026;2023-06-22T17:07:35;27.10;36.90
30150;DHT22;16962;48.646;9.026;2023-06-22T17:10:25;27.00;41.30
30150;DHT22;16962;48.646;9.026;2023-06-22T17:13:19;26.90;41.60
30150;DHT22;16962;48.646;9.026;2023-06-22T17:16:09;26.70;37.60
30150;DHT22;16962;48.646;9.026;2023-06-22T17:19:01;26.50;39.70
30150;DHT22;16962;48.646;9.026;2023-06-22T17:21:55;26.40;31.60
30150;DHT22;16962;48.646;9.026;2023-06-22T17:24:43;26.30;36.80
30150;DHT22;16962;48.646;9.026;2023-06-22T17:27:35;26.20;31.60
30150;DHT22;16962;48.646;9.026;2023-06-22T17:30:23;26.10;35.70
30150;DHT22;16962;48.646;9.026;2023-06-22T17:33:15;25.90;32.50
30150;DHT22;16962;48.646;9.026;2023-06-22T17:36:13;25.70;29.50
30150;DHT22;16962;48.646;9.026;2023-06-22T17:39:02;25.40;25.40
30150;DHT22;16962;48.646;9.026;2023-06-22T17:41:53;25.20;23.40
30150;DHT22;16962;48.646;9.026;2023-06-22T17:44:48;25.00;29.40
30150;DHT22;16962;48.646;9.026;2023-06-22T17:47:56;24.80;34.10
30150;DHT22;16962;48.646;9.026;2023-06-22T17:51:22;24.50;27.80
30150;DHT22;16962;48.646;9.026;2023-06-22T17:54:12;24.30;36.30
30150;DHT22;16962;48.646;9.026;2023-06-22T17:57:36;24.10;33.60
30150;DHT22;16962;48.646;9.026;2023-06-22T18:00:28;24.00;33.50
30150;DHT22;16962;48.646;9.026;2023-06-22T18:03:30;23.90;40.30
30150;DHT22;16962;48.646;9.026;2023-06-22T18:06:27;23.80;36.20
30150;DHT22;16962;48.646;9.026;2023-06-22T18:09:18;23.70;48.30
30150;DHT22;16962;48.646;9.026;2023-06-22T18:12:09;23.60;47.70
30150;DHT22;16962;48.646;9.026;2023-06-22T18:15:04;23.50;44.80
30150;DHT22;16962;48.646;9.026;2023-06-22T18:17:58;23.50;51.30
30150;DHT22;16962;48.646;9.026;2023-06-22T18:20:49;23.20;67.50
30150;DHT22;16962;48.646;9.026;2023-06-22T18:23:38;22.10;99.90
30150;DHT22;16962;48.646;9.026;2023-06-22T18:32:15;21.40;99.90
30150;DHT22;16962;48.646;9.026;2023-06-22T18:35:05;21.50;99.90
30150;DHT22;16962;48.646;9.026;2023-06-22T18:37:55;21.60;99.90
30150;DHT22;16962;48.646;9.026;2023-06-22T18:40:52;21.60;99.90
30150;DHT22;16962;48.646;9.026;2023-06-22T18:43:39;21.50;99.90
30150;DHT22;16962;48.646;9.026;2023-06-22T18:46:37;21.50;99.90
30150;DHT22;16962;48.646;9.026;2023-06-22T18:49:31;21.50;99.90
30150;DHT22;16962;48.646;9.026;2023-06-22T18:52:25;21.40;99.90
30150;DHT22;16962;48.646;9.026;2023-06-22T18:55:14;21.30;99.90
30150;DHT22;16962;48.646;9.026;2023-06-22T18:58:19;21.00;99.90
30150;DHT22;16962;48.646;9.026;2023-06-22T19:01:17;20.70;99.90
30150;DHT22;16962;48.646;9.026;2023-06-22T19:04:15;20.80;99.90
30150;DHT22;16962;48.646;9.026;2023-06-22T19:07:04;20.90;99.90
30150;DHT22;16962;48.646;9.026;2023-06-22T19:10:20;20.80;99.90
30150;DHT22;16962;48.646;9.026;2023-06-22T19:16:13;20.70;99.90
30150;DHT22;16962;48.646;9.026;2023-06-22T19:19:12;20.70;99.90
30150;DHT22;16962;48.646;9.026;2023-06-22T19:22:00;20.60;99.90
30150;DHT22;16962;48.646;9.026;2023-06-22T19:24:49;20.60;99.90
30150;DHT22;16962;48.646;9.026;2023-06-22T19:27:42;20.50;99.90
30150;DHT22;16962;48.646;9.026;2023-06-22T19:30:30;20.40;99.90
30150;DHT22;16962;48.646;9.026;2023-06-22T19:33:18;20.30;99.90